Airfield :







YOU CAN JOIN US ON...

 
LOGIN :

Register | Disclaimer

   EN    FR    IT 

 









Legend :    VFR   Marginal VFR   IFR   Intensive IFR   Very Intensive IFR
Visi :
Ceiling :
>= 8 km
>= 3000ft
5 to 8 km
1000 to 3000 ft
1500m to 5 km
500 to 1000 ft
800 to 1500m
200 to 500 ft
< 800m
< 200 ft
Symbols :   Thunderstorms  Fog  Heavy snow  Heavy precipitations  Wind > 20 kt






- Airport Elevation : 27 ft
- IATA code : FSP


LFVP - St Pierre et Miquelon

CURRENT METAR :
  • 180500Z 15023KT 4200 -DZRA BR BKN003 BKN053 12/12 Q1002 NOSIG

EXPIRED METARs :
  • 180400Z 14022G32KT 4200 -RA BR BKN005 11/11 Q1003 TEMPO +SHRA
  • 180300Z 12026G38KT 2200 +SHRA BR BKN005 11/11 Q1003 TEMPO +SHRA

TAF AMD TAF LFVP
Valid from the 18 at 00:00 until the 18 at 09:00 UTC


180000Z 1800/1809 11030G45KT 3000 -RA BR OVC003
TEMPO 1800/1805 1500 +SHRA
TEMPO 1802/1804 14035G55KT
BECMG 1804/1806 17020KT 0800 -RADZ FG OVC002
BECMG 1807/1809 16012KT 0300 FG OVC001



MET'MAP, your aeronautical weather chart ! - Copyright ORBIFLY December 2007 - Disclaimer

ORBIFLY MET'MAP TEAM :

Programming & Development : Alexandra Zaïnal
Concept & Development : Baudouin d'Aumeries
Co-Development & Prog : Marc-Olivier Méhu
Technical & hardware support : Manuel Goepfert

Contact : metmap@orbifly.com




SOURCES & CREDITS :

   NOAA